createdAt,value
2019-01-14T00:00:40.830Z,95331.80
2019-01-14T00:03:10.320Z,95328.97
2019-01-14T00:05:39.786Z,95350.31
2019-01-14T00:08:09.462Z,95351.20
2019-01-14T00:10:38.951Z,95365.18
2019-01-14T00:13:08.527Z,95369.97
2019-01-14T00:15:38.030Z,95357.67
2019-01-14T00:18:07.491Z,95357.17
2019-01-14T00:20:36.972Z,95366.90
2019-01-14T00:23:06.442Z,95370.17
2019-01-14T00:25:36.044Z,95373.94
2019-01-14T00:28:05.529Z,95371.42
2019-01-14T00:30:35.242Z,95371.45
2019-01-14T00:33:04.925Z,95375.74
2019-01-14T00:35:34.397Z,95360.37
2019-01-14T00:41:11.662Z,95358.59
2019-01-14T00:43:41.150Z,95369.11
2019-01-14T00:46:10.615Z,95393.69
2019-01-14T00:48:40.106Z,95395.63
2019-01-14T00:51:09.569Z,95404.60
2019-01-14T00:53:39.029Z,95415.77
2019-01-14T00:56:08.542Z,95411.22
2019-01-14T00:58:38.004Z,95406.39
2019-01-14T01:01:07.535Z,95392.59
2019-01-14T01:03:37.025Z,95385.91
2019-01-14T01:06:06.696Z,95362.56
2019-01-14T01:08:36.183Z,95360.27
2019-01-14T01:11:06.187Z,95363.41
2019-01-14T01:13:35.648Z,95383.81
2019-01-14T01:16:05.111Z,95400.56
2019-01-14T01:18:34.629Z,95406.63
2019-01-14T01:21:04.499Z,95410.94
2019-01-14T01:23:33.957Z,95409.87
2019-01-14T01:26:03.450Z,95389.70
2019-01-14T01:28:32.921Z,95373.12
2019-01-14T01:31:02.389Z,95372.92
2019-01-14T01:33:31.879Z,95362.77
2019-01-14T01:36:01.351Z,95364.52
2019-01-14T01:38:30.813Z,95380.72
2019-01-14T01:41:00.305Z,95383.36
2019-01-14T01:43:29.769Z,95395.64
2019-01-14T01:45:59.238Z,95396.56
2019-01-14T01:48:28.751Z,95393.91
2019-01-14T01:50:58.363Z,95405.92
2019-01-14T01:53:27.823Z,95385.64
2019-01-14T01:55:57.383Z,95381.48
2019-01-14T01:58:26.779Z,95392.82
2019-01-14T02:00:56.238Z,95396.30
2019-01-14T02:03:25.736Z,95398.41
2019-01-14T02:05:55.213Z,95414.22
2019-01-14T02:08:24.689Z,95429.41
2019-01-14T02:10:54.185Z,95441.46
2019-01-14T02:13:23.647Z,95443.53
2019-01-14T02:15:53.117Z,95435.50
2019-01-14T02:18:22.601Z,95427.28
2019-01-14T02:20:52.064Z,95455.53
2019-01-14T02:23:21.544Z,95440.16
2019-01-14T02:25:51.059Z,95443.77
2019-01-14T02:28:20.632Z,95433.16
2019-01-14T02:30:50.042Z,95432.48
2019-01-14T02:33:19.548Z,95437.36
2019-01-14T02:35:49.221Z,95438.84
2019-01-14T02:38:18.751Z,95432.59
2019-01-14T02:40:48.309Z,95441.12
2019-01-14T02:43:17.773Z,95453.05
2019-01-14T02:45:47.243Z,95448.75
2019-01-14T02:48:16.724Z,95461.48
2019-01-14T02:50:46.208Z,95475.02
2019-01-14T02:53:15.664Z,95492.95
2019-01-14T02:55:45.164Z,95518.30
2019-01-14T02:58:14.627Z,95521.95
2019-01-14T03:00:44.084Z,95528.23
2019-01-14T03:03:13.494Z,95524.37
2019-01-14T03:05:42.940Z,95491.73
2019-01-14T03:08:12.417Z,95503.05
2019-01-14T03:10:41.963Z,95498.77
2019-01-14T03:13:11.423Z,95492.90
2019-01-14T03:15:40.903Z,95461.44
2019-01-14T03:18:10.397Z,95465.37
2019-01-14T03:20:39.858Z,95471.41
2019-01-14T03:23:09.325Z,95472.77
2019-01-14T03:25:38.799Z,95478.70
2019-01-14T03:28:08.261Z,95480.08
2019-01-14T03:30:37.764Z,95479.64
2019-01-14T03:33:07.301Z,95470.16
2019-01-14T03:35:36.766Z,95473.75
2019-01-14T03:38:06.382Z,95476.91
2019-01-14T03:40:35.877Z,95484.83
2019-01-14T03:43:05.382Z,95490.49
2019-01-14T03:45:34.841Z,95503.17
2019-01-14T03:48:04.333Z,95500.23
2019-01-14T03:50:33.723Z,95496.27
2019-01-14T03:53:03.201Z,95488.11
2019-01-14T03:55:32.719Z,95491.08
2019-01-14T03:58:02.231Z,95503.41
2019-01-14T04:00:31.695Z,95512.51
2019-01-14T04:03:01.215Z,95520.23
2019-01-14T04:05:30.668Z,95524.31
2019-01-14T04:08:00.136Z,95515.78
2019-01-14T04:10:29.573Z,95519.16
2019-01-14T04:12:59.030Z,95513.30
2019-01-14T04:15:28.490Z,95520.55
2019-01-14T04:17:57.982Z,95521.70
2019-01-14T04:20:27.452Z,95518.22
2019-01-14T04:22:56.914Z,95517.33
2019-01-14T04:25:26.407Z,95513.45
2019-01-14T04:27:55.993Z,95519.97
2019-01-14T04:30:25.454Z,95525.16
2019-01-14T04:32:54.999Z,95528.56
2019-01-14T04:35:24.448Z,95520.74
2019-01-14T04:37:53.925Z,95521.14
2019-01-14T04:40:23.421Z,95525.03
2019-01-14T04:42:52.887Z,95516.42
2019-01-14T04:45:22.347Z,95514.17
2019-01-14T04:47:51.835Z,95517.09
2019-01-14T04:50:22.035Z,95516.95
2019-01-14T04:52:51.487Z,95523.41
2019-01-14T04:55:20.986Z,95514.96
2019-01-14T04:57:50.461Z,95520.11
2019-01-14T05:00:23.597Z,95518.73
2019-01-14T05:02:53.105Z,95518.38
2019-01-14T05:05:22.562Z,95517.78
2019-01-14T05:07:52.033Z,95512.50
2019-01-14T05:10:22.228Z,95519.88
2019-01-14T05:12:51.707Z,95523.34
2019-01-14T05:15:21.188Z,95517.91
2019-01-14T05:17:50.702Z,95523.83
2019-01-14T05:20:23.210Z,95523.34
2019-01-14T05:22:52.871Z,95522.91
2019-01-14T05:25:22.379Z,95525.80
2019-01-14T05:27:51.835Z,95529.72
2019-01-14T05:30:21.799Z,95529.27
2019-01-14T05:32:51.278Z,95535.82
2019-01-14T05:35:20.688Z,95541.38
2019-01-14T05:37:50.179Z,95543.31
2019-01-14T05:40:24.357Z,95538.15
2019-01-14T05:42:53.831Z,95544.23
2019-01-14T05:45:23.303Z,95549.28
2019-01-14T05:47:52.820Z,95559.06
2019-01-14T05:50:22.287Z,95560.03
2019-01-14T05:52:51.758Z,95565.38
2019-01-14T05:55:21.255Z,95563.58
2019-01-14T05:57:50.718Z,95580.28
2019-01-14T06:00:24.251Z,95582.39
2019-01-14T06:02:53.740Z,95584.95
2019-01-14T06:05:23.308Z,95591.61
2019-01-14T06:07:52.854Z,95584.97
2019-01-14T06:10:22.352Z,95590.25
2019-01-14T06:12:51.803Z,95588.05
2019-01-14T06:15:21.280Z,95583.45
2019-01-14T06:17:50.776Z,95594.23
2019-01-14T06:20:24.976Z,95600.11
2019-01-14T06:22:54.455Z,95604.73
2019-01-14T06:25:23.958Z,95608.94
2019-01-14T06:27:53.410Z,95618.74
2019-01-14T06:30:29.430Z,95619.66
2019-01-14T06:32:59.229Z,95626.59
2019-01-14T06:35:28.704Z,95627.03
2019-01-14T06:37:58.200Z,95636.33
2019-01-14T06:40:27.661Z,95641.84
2019-01-14T06:42:57.247Z,95650.78
2019-01-14T06:45:26.722Z,95667.16
2019-01-14T06:47:56.291Z,95671.68
2019-01-14T06:50:25.793Z,95672.63
2019-01-14T06:52:55.258Z,95674.53
2019-01-14T06:55:24.664Z,95674.63
2019-01-14T06:57:54.152Z,95670.07
2019-01-14T07:00:25.906Z,95665.30
2019-01-14T07:02:55.379Z,95664.80
2019-01-14T07:05:24.860Z,95664.00
2019-01-14T07:07:59.543Z,95670.26
2019-01-14T07:10:27.602Z,95679.17
2019-01-14T07:12:57.117Z,95688.72
2019-01-14T07:15:26.575Z,95684.41
2019-01-14T07:17:56.130Z,95698.46
2019-01-14T07:20:25.809Z,95694.14
2019-01-14T07:22:55.603Z,95698.81
2019-01-14T07:25:25.042Z,95709.44
2019-01-14T07:27:54.573Z,95699.48
2019-01-14T07:30:24.373Z,95712.14
2019-01-14T07:32:54.333Z,95713.36
2019-01-14T07:35:23.849Z,95720.44
2019-01-14T07:37:53.322Z,95726.17
2019-01-14T07:40:22.796Z,95724.16
2019-01-14T07:42:52.384Z,95723.46
2019-01-14T07:45:21.859Z,95712.59
2019-01-14T07:47:51.322Z,95717.95
2019-01-14T07:50:20.819Z,95725.90
2019-01-14T07:52:50.214Z,95714.20
2019-01-14T07:55:19.677Z,95710.25
2019-01-14T07:57:49.125Z,95723.23
2019-01-14T08:00:24.772Z,95719.28
2019-01-14T08:02:54.323Z,95725.98
2019-01-14T08:05:23.957Z,95736.67
2019-01-14T08:07:53.518Z,95740.08
2019-01-14T08:10:23.009Z,95739.19
2019-01-14T08:12:52.474Z,95732.45
2019-01-14T08:15:22.433Z,95737.09
2019-01-14T08:17:51.945Z,95745.33
2019-01-14T08:20:21.400Z,95760.78
2019-01-14T08:22:50.914Z,95755.76
2019-01-14T08:25:20.418Z,95749.15
2019-01-14T08:27:49.885Z,95748.64
2019-01-14T08:30:21.953Z,95750.34
2019-01-14T08:32:51.539Z,95760.88
2019-01-14T08:35:21.106Z,95753.13
2019-01-14T08:37:50.613Z,95758.50
2019-01-14T08:40:20.115Z,95756.08
2019-01-14T08:42:49.685Z,95756.84
2019-01-14T08:45:19.193Z,95761.16
2019-01-14T08:47:48.771Z,95761.09
2019-01-14T08:50:19.550Z,95767.94
2019-01-14T08:52:49.014Z,95783.27
2019-01-14T08:55:18.606Z,95799.23
2019-01-14T08:57:54.493Z,95798.84
2019-01-14T09:00:20.665Z,95807.83
2019-01-14T09:02:50.383Z,95801.36
2019-01-14T09:05:19.844Z,95815.73
2019-01-14T09:07:49.312Z,95819.36
2019-01-14T09:10:22.350Z,95809.22
2019-01-14T09:12:51.922Z,95812.79
2019-01-14T09:15:21.493Z,95817.51
2019-01-14T09:17:51.026Z,95828.25
2019-01-14T09:20:23.837Z,95825.93
2019-01-14T09:22:53.306Z,95831.13
2019-01-14T09:25:22.785Z,95846.77
2019-01-14T09:27:52.254Z,95837.80
2019-01-14T09:30:24.116Z,95852.38
2019-01-14T09:32:53.618Z,95864.55
2019-01-14T09:35:23.089Z,95851.48
2019-01-14T09:37:52.543Z,95868.64
2019-01-14T09:40:23.629Z,95879.18
2019-01-14T09:42:53.100Z,95862.87
2019-01-14T09:45:22.559Z,95874.52
2019-01-14T09:47:52.064Z,95893.81
2019-01-14T09:50:21.526Z,95889.77
2019-01-14T09:52:50.997Z,95876.98
2019-01-14T09:55:20.713Z,95872.31
2019-01-14T09:57:50.192Z,95857.58
2019-01-14T10:00:19.605Z,95866.62
2019-01-14T10:02:49.099Z,95863.72
2019-01-14T10:05:19.484Z,95879.40
2019-01-14T10:07:48.931Z,95877.54
2019-01-14T10:10:19.527Z,95874.70
2019-01-14T10:12:49.009Z,95870.89
2019-01-14T10:15:25.106Z,95877.22
2019-01-14T10:17:58.924Z,95862.80
2019-01-14T10:20:28.413Z,95857.70
2019-01-14T10:22:57.906Z,95850.89
2019-01-14T10:25:27.390Z,95865.83
2019-01-14T10:27:56.851Z,95852.08
2019-01-14T10:30:26.454Z,95857.58
2019-01-14T10:32:55.924Z,95845.17
2019-01-14T10:35:25.396Z,95844.89
2019-01-14T10:37:55.257Z,95837.22
2019-01-14T10:40:24.728Z,95849.58
2019-01-14T10:42:54.236Z,95838.94
2019-01-14T10:45:24.529Z,95846.37
2019-01-14T10:47:54.001Z,95842.52
2019-01-14T10:50:23.468Z,95847.52
2019-01-14T10:52:52.960Z,95855.59
2019-01-14T10:55:22.457Z,95847.55
2019-01-14T10:57:51.926Z,95864.44
2019-01-14T11:00:26.878Z,95866.92
2019-01-14T11:02:56.455Z,95873.44
2019-01-14T11:05:28.424Z,95891.98
2019-01-14T11:07:57.937Z,95884.20
2019-01-14T11:10:27.533Z,95884.45
2019-01-14T11:12:57.040Z,95899.94
2019-01-14T11:15:26.649Z,95887.81
2019-01-14T11:17:56.118Z,95885.55
2019-01-14T11:20:30.761Z,95888.60
2019-01-14T11:23:00.453Z,95881.53
2019-01-14T11:25:29.927Z,95873.66
2019-01-14T11:27:59.397Z,95895.64
2019-01-14T11:30:30.396Z,95894.52
2019-01-14T11:32:59.861Z,95899.73
2019-01-14T11:35:29.330Z,95866.41
2019-01-14T11:37:59.022Z,95872.75
2019-01-14T11:40:32.482Z,95868.88
2019-01-14T11:43:01.959Z,95871.84
2019-01-14T11:45:31.458Z,95875.77
2019-01-14T11:48:00.942Z,95903.78
2019-01-14T11:50:30.436Z,95871.24
2019-01-14T11:52:59.941Z,95882.77
2019-01-14T11:55:29.408Z,95890.53
2019-01-14T11:57:58.882Z,95899.36
2019-01-14T12:00:28.525Z,95877.23
2019-01-14T12:02:58.001Z,95863.72
2019-01-14T12:05:27.647Z,95862.82
2019-01-14T12:07:57.145Z,95864.83
2019-01-14T12:10:26.628Z,95860.07
2019-01-14T12:12:56.091Z,95876.48
2019-01-14T12:15:27.122Z,95865.70
2019-01-14T12:17:56.603Z,95871.09
2019-01-14T12:20:26.079Z,95903.55
2019-01-14T12:22:55.602Z,95914.02
2019-01-14T12:25:25.117Z,95923.94
2019-01-14T12:27:54.595Z,95897.27
2019-01-14T12:30:33.574Z,95927.98
2019-01-14T12:33:03.045Z,95907.23
2019-01-14T12:35:32.520Z,95928.95
2019-01-14T12:38:02.017Z,95944.32
2019-01-14T12:40:31.400Z,95944.02
2019-01-14T12:43:00.894Z,95912.34
2019-01-14T12:45:30.410Z,95937.19
2019-01-14T12:47:59.897Z,95955.41
2019-01-14T12:50:29.362Z,95942.58
2019-01-14T12:52:58.913Z,95936.63
2019-01-14T12:55:28.438Z,95964.97
2019-01-14T12:57:57.919Z,95952.70
2019-01-14T13:00:31.197Z,95937.08
2019-01-14T13:03:00.662Z,95957.23
2019-01-14T13:05:30.129Z,95946.86
2019-01-14T13:07:59.546Z,95930.95
2019-01-14T13:10:29.042Z,95922.16
2019-01-14T13:12:58.507Z,95917.63
2019-01-14T13:15:28.330Z,95932.28
2019-01-14T13:17:57.824Z,95912.76
2019-01-14T13:20:27.219Z,95922.69
2019-01-14T13:22:56.737Z,95899.31
2019-01-14T13:25:26.210Z,95924.46
2019-01-14T13:27:55.686Z,95912.09
2019-01-14T13:30:28.100Z,95919.32
2019-01-14T13:32:58.071Z,95929.30
2019-01-14T13:35:27.490Z,95912.56
2019-01-14T13:37:57.264Z,95909.45
2019-01-14T13:40:26.663Z,95907.36
2019-01-14T13:42:56.139Z,95916.13
2019-01-14T13:45:25.745Z,95913.02
2019-01-14T13:47:55.392Z,95901.63
2019-01-14T13:50:26.457Z,95920.59
2019-01-14T13:52:55.973Z,95910.14
2019-01-14T13:55:26.485Z,95921.11
2019-01-14T13:57:59.942Z,95939.98
2019-01-14T14:00:27.583Z,95943.36
2019-01-14T14:02:57.073Z,95941.02
2019-01-14T14:05:26.546Z,95933.72
2019-01-14T14:07:56.055Z,95958.80
2019-01-14T14:10:28.547Z,95958.67
2019-01-14T14:12:58.084Z,95978.38
2019-01-14T14:15:27.585Z,95977.56
2019-01-14T14:17:57.052Z,95976.16
2019-01-14T14:20:26.534Z,95997.05
2019-01-14T14:22:56.050Z,95981.90
2019-01-14T14:25:25.540Z,95990.16
2019-01-14T14:27:55.012Z,95988.89
2019-01-14T14:30:33.835Z,95988.89
2019-01-14T14:33:03.343Z,96008.73
2019-01-14T14:35:32.829Z,96010.54
2019-01-14T14:38:02.332Z,96018.52
2019-01-14T14:40:31.826Z,96015.70
2019-01-14T14:43:01.345Z,96012.45
2019-01-14T14:45:30.847Z,96008.22
2019-01-14T14:48:00.317Z,96014.51
2019-01-14T14:50:29.810Z,96015.70
2019-01-14T14:52:59.316Z,96021.50
2019-01-14T14:55:28.798Z,96035.18
2019-01-14T14:57:58.265Z,96027.95
2019-01-14T15:00:27.790Z,96040.89
2019-01-14T15:02:57.272Z,96037.91
2019-01-14T15:05:26.788Z,96040.63
2019-01-14T15:07:56.295Z,96041.20
2019-01-14T15:10:27.575Z,96037.62
2019-01-14T15:12:57.047Z,96046.29
2019-01-14T15:15:27.239Z,96058.86
2019-01-14T15:17:56.737Z,96051.20
2019-01-14T15:20:26.210Z,96041.20
2019-01-14T15:22:55.705Z,96038.42
2019-01-14T15:25:25.203Z,96048.02
2019-01-14T15:27:54.758Z,96052.61
2019-01-14T15:30:28.395Z,96061.34
2019-01-14T15:32:57.858Z,96078.35
2019-01-14T15:35:27.318Z,96076.98
2019-01-14T15:37:56.821Z,96094.98
2019-01-14T15:40:26.279Z,96091.98
2019-01-14T15:42:55.796Z,96085.11
2019-01-14T15:45:25.655Z,96088.10
2019-01-14T15:47:55.121Z,96092.44
2019-01-14T15:50:24.638Z,96088.89
2019-01-14T15:52:54.110Z,96091.49
2019-01-14T15:55:25.477Z,96101.92
2019-01-14T15:57:54.898Z,96116.38
2019-01-14T16:00:24.663Z,96120.16
2019-01-14T16:02:54.376Z,96139.89
2019-01-14T16:05:24.098Z,96154.59
2019-01-14T16:07:53.576Z,96172.66
2019-01-14T16:10:24.327Z,96174.18
2019-01-14T16:12:53.890Z,96163.56
2019-01-14T16:15:23.381Z,96168.02
2019-01-14T16:17:52.841Z,96174.94
2019-01-14T16:20:23.634Z,96179.09
2019-01-14T16:22:53.122Z,96195.33
2019-01-14T16:25:22.587Z,96204.98
2019-01-14T16:27:52.094Z,96206.35
2019-01-14T16:30:25.178Z,96208.81
2019-01-14T16:32:54.642Z,96218.28
2019-01-14T16:35:24.126Z,96241.15
2019-01-14T16:37:53.611Z,96244.88
2019-01-14T16:40:23.063Z,96247.69
2019-01-14T16:42:52.549Z,96242.80
2019-01-14T16:45:23.314Z,96251.74
2019-01-14T16:47:52.792Z,96261.80
2019-01-14T16:50:22.277Z,96258.64
2019-01-14T16:52:51.790Z,96269.27
2019-01-14T16:55:23.018Z,96275.29
2019-01-14T16:57:52.522Z,96274.58
2019-01-14T17:00:21.982Z,96278.20
2019-01-14T17:02:51.622Z,96290.51
2019-01-14T17:05:21.093Z,96296.66
2019-01-14T17:07:50.631Z,96305.53
2019-01-14T17:10:25.145Z,96308.11
2019-01-14T17:12:51.321Z,96325.83
2019-01-14T17:15:20.793Z,96326.70
2019-01-14T17:17:50.232Z,96320.08
2019-01-14T17:20:20.616Z,96323.23
2019-01-14T17:22:50.366Z,96320.75
2019-01-14T17:25:19.920Z,96323.44
2019-01-14T17:27:49.531Z,96332.44
2019-01-14T17:30:19.002Z,96328.77
2019-01-14T17:32:48.456Z,96346.09
2019-01-14T17:35:18.242Z,96346.47
2019-01-14T17:37:47.725Z,96347.80
2019-01-14T17:40:20.207Z,96341.47
2019-01-14T17:42:49.690Z,96340.50
2019-01-14T17:45:19.239Z,96341.75
2019-01-14T17:47:48.693Z,96336.26
2019-01-14T17:50:20.156Z,96340.64
2019-01-14T17:52:49.632Z,96344.77
2019-01-14T17:55:19.097Z,96341.87
2019-01-14T17:57:48.590Z,96352.53
2019-01-14T18:00:23.835Z,96352.48
2019-01-14T18:02:53.295Z,96357.86
2019-01-14T18:05:22.791Z,96361.78
2019-01-14T18:07:52.258Z,96363.41
2019-01-14T18:10:21.838Z,96370.77
2019-01-14T18:12:51.479Z,96371.69
2019-01-14T18:15:20.908Z,96370.04
2019-01-14T18:17:50.388Z,96378.70
2019-01-14T18:20:20.062Z,96387.13
2019-01-14T18:22:49.526Z,96402.34
2019-01-14T18:25:18.998Z,96421.75
2019-01-14T18:27:48.494Z,96439.84
2019-01-14T18:30:20.149Z,96442.91
2019-01-14T18:32:49.971Z,96439.88
2019-01-14T18:35:19.450Z,96436.57
2019-01-14T18:37:49.000Z,96436.69
2019-01-14T18:40:19.070Z,96438.98
2019-01-14T18:42:48.945Z,96443.50
2019-01-14T18:45:19.010Z,96461.19
2019-01-14T18:47:48.473Z,96456.38
2019-01-14T18:50:20.565Z,96465.73
2019-01-14T18:52:50.028Z,96468.62
2019-01-14T18:55:19.525Z,96469.19
2019-01-14T18:57:48.977Z,96482.25
2019-01-14T19:00:21.142Z,96490.50
2019-01-14T19:02:50.653Z,96490.78
2019-01-14T19:05:20.428Z,96511.27
2019-01-14T19:07:50.091Z,96513.14
2019-01-14T19:10:19.584Z,96529.63
2019-01-14T19:12:49.012Z,96527.28
2019-01-14T19:15:19.836Z,96532.69
2019-01-14T19:17:49.288Z,96537.66
2019-01-14T19:20:22.251Z,96559.86
2019-01-14T19:22:51.771Z,96562.00
2019-01-14T19:25:21.308Z,96564.63
2019-01-14T19:27:50.816Z,96570.11
2019-01-14T19:30:21.826Z,96581.34
2019-01-14T19:32:51.281Z,96599.39
2019-01-14T19:35:20.758Z,96606.64
2019-01-14T19:37:50.428Z,96617.32
2019-01-14T19:40:20.489Z,96624.73
2019-01-14T19:42:49.967Z,96641.89
2019-01-14T19:45:21.457Z,96669.83
2019-01-14T19:47:50.945Z,96703.14
2019-01-14T19:50:22.137Z,96733.61
2019-01-14T19:52:51.632Z,96748.72
2019-01-14T19:55:21.095Z,96766.19
2019-01-14T19:57:50.585Z,96775.61
2019-01-14T20:00:26.036Z,96796.82
2019-01-14T20:02:55.491Z,96795.74
2019-01-14T20:05:24.984Z,96784.38
2019-01-14T20:07:54.858Z,96792.56
2019-01-14T20:10:24.335Z,96795.08
2019-01-14T20:12:53.859Z,96805.25
2019-01-14T20:15:23.431Z,96814.44
2019-01-14T20:17:53.184Z,96814.93
2019-01-14T20:20:22.681Z,96817.77
2019-01-14T20:22:52.148Z,96806.92
2019-01-14T20:25:21.628Z,96805.33
2019-01-14T20:27:51.123Z,96801.16
2019-01-14T20:30:22.285Z,96802.56
2019-01-14T20:32:51.760Z,96808.81
2019-01-14T20:35:22.747Z,96799.00
2019-01-14T20:37:56.423Z,96811.97
2019-01-14T20:40:25.991Z,96812.33
2019-01-14T20:42:55.479Z,96817.41
2019-01-14T20:45:24.941Z,96805.44
2019-01-14T20:47:54.443Z,96812.19
2019-01-14T20:50:23.899Z,96816.72
2019-01-14T20:52:53.416Z,96808.19
2019-01-14T20:55:22.966Z,96815.92
2019-01-14T20:57:52.427Z,96820.01
2019-01-14T21:00:23.817Z,96824.02
2019-01-14T21:02:53.401Z,96823.70
2019-01-14T21:05:22.908Z,96825.18
2019-01-14T21:07:52.367Z,96815.45
2019-01-14T21:10:21.880Z,96818.59
2019-01-14T21:12:51.332Z,96816.86
2019-01-14T21:15:20.890Z,96818.92
2019-01-14T21:17:50.400Z,96821.00
2019-01-14T21:20:22.808Z,96828.03
2019-01-14T21:22:52.318Z,96820.70
2019-01-14T21:25:21.955Z,96825.84
2019-01-14T21:27:51.398Z,96830.98
2019-01-14T21:30:24.252Z,96839.42
2019-01-14T21:32:53.741Z,96851.00
2019-01-14T21:35:23.222Z,96885.61
2019-01-14T21:37:52.971Z,96865.64
2019-01-14T21:40:22.474Z,96877.67
2019-01-14T21:42:51.945Z,96865.25
2019-01-14T21:45:21.925Z,96871.45
2019-01-14T21:47:51.513Z,96872.42
2019-01-14T21:50:21.679Z,96866.28
2019-01-14T21:52:51.148Z,96865.09
2019-01-14T21:55:22.740Z,96873.05
2019-01-14T21:57:52.198Z,96882.09
2019-01-14T22:00:23.571Z,96886.52
2019-01-14T22:02:53.065Z,96887.48
2019-01-14T22:05:22.540Z,96891.02
2019-01-14T22:07:52.066Z,96895.14
2019-01-14T22:10:24.909Z,96894.66
2019-01-14T22:12:54.350Z,96911.05
2019-01-14T22:15:23.829Z,96921.36
2019-01-14T22:17:53.328Z,96934.64
2019-01-14T22:20:26.051Z,96933.40
2019-01-14T22:22:55.536Z,96942.36
2019-01-14T22:25:25.030Z,96946.50
2019-01-14T22:27:54.498Z,96967.47
2019-01-14T22:30:27.655Z,96972.91
2019-01-14T22:32:57.150Z,96976.92
2019-01-14T22:35:26.647Z,96980.14
2019-01-14T22:37:56.100Z,96980.63
2019-01-14T22:40:25.609Z,96987.55
2019-01-14T22:42:55.066Z,96986.47
2019-01-14T22:45:24.548Z,96988.66
2019-01-14T22:47:54.059Z,96986.82
2019-01-14T22:50:23.468Z,96991.16
2019-01-14T22:52:52.952Z,96983.39
2019-01-14T22:55:22.387Z,96995.20
2019-01-14T22:58:11.193Z,97006.19
2019-01-14T23:00:58.784Z,97005.72
2019-01-14T23:03:28.251Z,97009.95
2019-01-14T23:05:57.818Z,97014.68
2019-01-14T23:08:27.428Z,97019.05
2019-01-14T23:10:56.888Z,97023.39
2019-01-14T23:13:26.366Z,97022.50
2019-01-14T23:15:56.007Z,97032.70
2019-01-14T23:18:25.488Z,97033.12
2019-01-14T23:20:54.975Z,97031.89
2019-01-14T23:23:24.487Z,97042.28
2019-01-14T23:25:53.980Z,97044.48
2019-01-14T23:28:23.474Z,97051.36
2019-01-14T23:30:52.960Z,97049.11
2019-01-14T23:33:22.431Z,97058.53
2019-01-14T23:35:52.234Z,97059.21
2019-01-14T23:38:21.743Z,97061.84
2019-01-14T23:40:51.191Z,97068.36
2019-01-14T23:43:20.665Z,97072.41
2019-01-14T23:45:50.255Z,97066.28
2019-01-14T23:48:19.733Z,97057.84
2019-01-14T23:50:49.194Z,97073.63
2019-01-14T23:53:18.691Z,97072.63
2019-01-14T23:55:48.164Z,97070.45
2019-01-14T23:58:17.622Z,97066.02
